Time;durP1;ratioP1;P1;durP2;ratioP2;P2;SDS_P1;SDS_P2;PMS_P1;PMS_P2;Temp;Humidity;BMP_temperature;BMP_pressure;BME280_temperature;BME280_humidity;BME280_pressure;Samples;Min_cycle;Max_cycle;Signal;HPM_P1;HPM_P2
2022/08/18 00:02:11;;;;;;;40.53;34.05;;;;;;;18.37;98.22;100562.69;5045198;28;20132;-79
2022/08/18 00:04:38;;;;;;;38.72;34.83;;;;;;;18.26;98.59;100561.47;5045995;28;20132;-80
2022/08/18 00:07:05;;;;;;;41.03;35.50;;;;;;;18.26;98.91;100560.66;5044115;28;20050;-79
2022/08/18 00:09:34;;;;;;;41.00;35.63;;;;;;;18.22;99.47;100565.56;5045014;28;20060;-80
2022/08/18 00:12:06;;;;;;;40.42;35.13;;;;;;;18.22;99.60;100562.91;5045385;28;20080;-80
2022/08/18 00:14:32;;;;;;;44.67;36.78;;;;;;;18.22;99.61;100555.78;5046965;28;20080;-80
2022/08/18 00:16:59;;;;;;;42.63;37.90;;;;;;;18.21;99.87;100553.34;5046143;28;20068;-81
2022/08/18 00:19:26;;;;;;;45.70;38.40;;;;;;;18.22;99.71;100555.78;5045230;28;20049;-82
2022/08/18 00:21:53;;;;;;;46.67;37.97;;;;;;;18.23;99.98;100556.59;5045515;28;20084;-81
2022/08/18 00:24:19;;;;;;;43.10;38.47;;;;;;;18.20;100.00;100552.53;5045409;28;20471;-81
2022/08/18 00:26:46;;;;;;;45.35;38.30;;;;;;;18.15;100.00;100554.97;5046074;28;20095;-80
2022/08/18 00:29:14;;;;;;;43.15;38.15;;;;;;;18.17;100.00;100552.94;5045857;28;20072;-79
2022/08/18 00:31:41;;;;;;;44.78;38.45;;;;;;;18.16;100.00;100553.16;5046462;28;20107;-80
2022/08/18 00:34:08;;;;;;;42.55;38.00;;;;;;;18.12;100.00;100550.09;5045664;28;20076;-80
2022/08/18 00:36:34;;;;;;;50.58;40.95;;;;;;;18.12;100.00;100539.50;5044687;28;20124;-80
2022/08/18 00:39:01;;;;;;;50.75;42.42;;;;;;;18.09;100.00;100533.81;5044602;28;20072;-81
2022/08/18 00:41:28;;;;;;;48.55;42.95;;;;;;;18.06;100.00;100548.28;5044064;28;20103;-80
2022/08/18 00:43:57;;;;;;;51.75;43.90;;;;;;;18.13;100.00;100533.19;5044372;28;20068;-82
2022/08/18 00:46:29;;;;;;;51.88;44.78;;;;;;;18.11;100.00;100537.88;5044279;28;20060;-80
2022/08/18 00:48:57;;;;;;;52.78;45.35;;;;;;;18.09;100.00;100537.25;5043601;28;20053;-81
2022/08/18 00:51:30;;;;;;;51.03;44.55;;;;;;;18.03;100.00;100534.63;5043601;28;20510;-82
2022/08/18 00:54:03;;;;;;;54.00;44.20;;;;;;;18.04;100.00;100530.97;5042100;28;20156;-80
2022/08/18 00:56:36;;;;;;;51.30;43.53;;;;;;;17.97;100.00;100528.31;5041070;28;20542;-80
2022/08/18 00:59:08;;;;;;;54.72;46.22;;;;;;;17.84;100.00;100531.81;5040605;28;20057;-80
2022/08/18 01:01:36;;;;;;;54.90;46.67;;;;;;;17.79;100.00;100526.34;5039728;28;20045;-82
2022/08/18 01:04:08;;;;;;;54.78;47.17;;;;;;;17.86;100.00;100518.38;5040601;28;20084;-80
2022/08/18 01:06:43;;;;;;;59.58;47.70;;;;;;;17.80;100.00;100529.78;5044190;28;20084;-81
2022/08/18 01:09:10;;;;;;;60.70;49.35;;;;;;;17.73;100.00;100519.22;5040510;28;20081;-80
2022/08/18 01:11:38;;;;;;;62.40;50.00;;;;;;;17.64;100.00;100527.53;5039605;28;20155;-80
2022/08/18 01:14:05;;;;;;;61.58;49.60;;;;;;;17.61;100.00;100539.34;5036416;28;20500;-82
2022/08/18 01:22:12;;;;;;;64.85;50.00;;;;;;;17.63;100.00;100539.13;5048709;28;20057;-81
2022/08/18 01:27:30;;;;;;;62.80;50.53;;;;;;;17.52;100.00;100554.59;5046808;28;20057;-81
2022/08/18 01:30:02;;;;;;;63.10;49.63;;;;;;;17.52;100.00;100551.13;5045775;28;20041;-80
2022/08/18 01:32:28;;;;;;;65.13;50.95;;;;;;;17.53;100.00;100550.13;5046084;28;20049;-79
2022/08/18 01:34:55;;;;;;;63.42;49.28;;;;;;;17.49;100.00;100544.41;5046410;28;20120;-80
2022/08/18 01:37:24;;;;;;;58.80;49.88;;;;;;;17.50;100.00;100546.03;5045557;28;20057;-81
2022/08/18 01:39:52;;;;;;;63.80;50.03;;;;;;;17.44;100.00;100546.06;5045231;28;20504;-81
2022/08/18 01:42:19;;;;;;;55.80;47.47;;;;;;;17.47;100.00;100557.06;5044832;28;20072;-81
2022/08/18 01:44:50;;;;;;;58.78;48.58;;;;;;;17.47;100.00;100554.41;5044703;28;20077;-81
2022/08/18 01:47:19;;;;;;;57.38;49.05;;;;;;;17.50;100.00;100561.09;5044067;28;20457;-81
2022/08/18 01:49:46;;;;;;;56.10;48.33;;;;;;;17.49;100.00;100562.94;5048489;28;20053;-81
2022/08/18 01:52:19;;;;;;;59.20;49.55;;;;;;;17.48;100.00;100563.16;5043914;28;20053;-82
2022/08/18 01:54:46;;;;;;;61.55;49.95;;;;;;;17.48;100.00;100573.75;5046861;28;20061;-81
2022/08/18 01:57:15;;;;;;;59.13;50.20;;;;;;;17.44;100.00;100583.91;5044232;28;20057;-79
2022/08/18 01:59:42;;;;;;;62.92;50.67;;;;;;;17.45;100.00;100579.44;5041426;28;20045;-79
2022/08/18 02:02:13;;;;;;;61.47;49.22;;;;;;;17.43;100.00;100582.28;5042404;28;20076;-80
2022/08/18 02:04:41;;;;;;;59.22;49.90;;;;;;;17.41;100.00;100576.38;5041636;28;20532;-80
2022/08/18 02:07:11;;;;;;;63.33;50.83;;;;;;;17.45;100.00;100577.59;5039917;28;20103;-80
2022/08/18 02:09:41;;;;;;;63.25;50.22;;;;;;;17.47;100.00;100578.22;5038046;28;20500;-81
2022/08/18 02:12:08;;;;;;;63.65;52.13;;;;;;;17.36;100.00;100565.59;5039949;28;20144;-80
2022/08/18 02:14:37;;;;;;;62.42;51.47;;;;;;;17.27;100.00;100553.56;5040400;28;20133;-80
2022/08/18 02:17:07;;;;;;;64.72;53.05;;;;;;;17.26;100.00;100554.59;5043199;28;20435;-80
2022/08/18 02:19:34;;;;;;;64.05;52.28;;;;;;;17.23;100.00;100557.63;5046602;28;20117;-82
2022/08/18 02:22:02;;;;;;;66.72;53.90;;;;;;;17.14;100.00;100570.22;5045227;28;20088;-79
2022/08/18 02:24:28;;;;;;;65.90;54.72;;;;;;;17.16;100.00;100570.84;5045703;28;20073;-79
2022/08/18 02:26:55;;;;;;;72.85;56.92;;;;;;;17.16;100.00;100562.91;5046124;28;20053;-82
2022/08/18 02:29:22;;;;;;;73.53;57.28;;;;;;;17.10;100.00;100566.34;5047031;28;20113;-81
2022/08/18 02:31:50;;;;;;;74.88;59.60;;;;;;;17.04;100.00;100556.56;5049927;28;20046;-81
2022/08/18 02:34:17;;;;;;;75.63;59.15;;;;;;;17.02;100.00;100565.72;5049578;28;20046;-79
2022/08/18 02:36:43;;;;;;;81.05;60.15;;;;;;;17.00;100.00;100554.56;5048294;28;20053;-80
2022/08/18 02:39:10;;;;;;;75.90;56.85;;;;;;;16.95;100.00;100551.69;5049118;28;20045;-78
2022/08/18 02:41:37;;;;;;;71.30;56.80;;;;;;;16.88;100.00;100543.72;5047730;28;20053;-78
2022/08/18 02:44:05;;;;;;;72.18;55.97;;;;;;;16.90;100.00;100550.44;5049307;28;20053;-80
2022/08/18 02:46:32;;;;;;;78.22;59.30;;;;;;;16.88;100.00;100563.06;5051100;28;20080;-81
2022/08/18 02:49:00;;;;;;;72.32;56.90;;;;;;;16.88;100.00;100547.19;5053381;28;20046;-80
2022/08/18 02:51:27;;;;;;;71.38;56.65;;;;;;;16.86;100.00;100549.22;5055808;28;20049;-80
2022/08/18 02:53:54;;;;;;;75.05;58.08;;;;;;;16.82;100.00;100549.81;5052430;28;20088;-81
2022/08/18 02:56:23;;;;;;;78.00;57.67;;;;;;;16.89;100.00;100550.66;5051140;28;20079;-81
2022/08/18 02:58:53;;;;;;;76.90;58.95;;;;;;;16.85;100.00;100542.31;5049962;28;20076;-80
2022/08/18 03:01:20;;;;;;;72.38;57.10;;;;;;;16.89;100.00;100548.81;5049716;28;20049;-81
2022/08/18 03:03:47;;;;;;;75.50;56.83;;;;;;;16.86;100.00;100546.56;5049653;28;20059;-81
2022/08/18 03:06:16;;;;;;;74.18;57.25;;;;;;;16.79;100.00;100542.28;5049663;28;20053;-78
2022/08/18 03:08:47;;;;;;;72.05;55.22;;;;;;;16.77;100.00;100541.66;5049769;28;20067;-81
2022/08/18 03:11:14;;;;;;;80.57;58.38;;;;;;;16.70;100.00;100531.06;5049942;28;20063;-80
2022/08/18 03:13:41;;;;;;;75.68;57.50;;;;;;;16.75;100.00;100549.78;5049172;28;20053;-80
2022/08/18 03:16:07;;;;;;;77.65;57.70;;;;;;;16.87;100.00;100558.78;5071589;22;20132;-77
2022/08/18 03:18:34;;;;;;;80.63;61.15;;;;;;;16.89;100.00;100553.28;5052899;28;20088;-76
2022/08/18 03:21:05;;;;;;;84.35;61.28;;;;;;;16.95;100.00;100555.16;5053866;28;20531;-75
2022/08/18 03:23:33;;;;;;;77.60;58.42;;;;;;;16.87;100.00;100542.91;5053825;28;20049;-75
2022/08/18 03:26:00;;;;;;;81.63;60.47;;;;;;;16.95;100.00;100554.31;5053640;28;20103;-76
2022/08/18 03:28:27;;;;;;;83.78;61.83;;;;;;;17.03;100.00;100552.28;5048840;28;20084;-76
2022/08/18 03:30:54;;;;;;;91.75;64.40;;;;;;;17.12;100.00;100558.22;5033951;28;20068;-72
2022/08/18 03:33:21;;;;;;;81.88;61.72;;;;;;;17.18;100.00;100562.69;5033677;28;20087;-76
2022/08/18 03:35:48;;;;;;;93.72;63.08;;;;;;;17.19;100.00;100559.03;5033834;28;20157;-76
2022/08/18 03:38:14;;;;;;;92.93;64.30;;;;;;;17.16;100.00;100564.72;5033205;28;20046;-75
2022/08/18 03:40:42;;;;;;;96.50;65.35;;;;;;;17.11;100.00;100561.88;5033581;28;20082;-77
2022/08/18 03:43:09;;;;;;;97.40;65.97;;;;;;;17.17;100.00;100569.00;5033385;28;20085;-78
2022/08/18 03:45:36;;;;;;;104.95;66.40;;;;;;;17.14;100.00;100564.94;5033140;28;20096;-76
2022/08/18 03:48:03;;;;;;;106.47;68.25;;;;;;;17.12;100.00;100560.84;5033166;28;20085;-76
2022/08/18 03:50:31;;;;;;;97.60;63.80;;;;;;;17.20;100.00;100558.03;5033225;28;20085;-77
2022/08/18 03:52:58;;;;;;;104.50;66.93;;;;;;;17.23;100.00;100547.88;5033391;28;20045;-76
2022/08/18 03:55:26;;;;;;;97.38;65.68;;;;;;;17.18;100.00;100554.78;5033335;28;20057;-76
2022/08/18 03:57:58;;;;;;;103.90;66.28;;;;;;;17.22;100.00;100561.28;5033008;28;20479;-74
2022/08/18 04:00:26;;;;;;;108.07;67.83;;;;;;;17.27;100.00;100561.50;5033321;28;20049;-75
2022/08/18 04:02:52;;;;;;;109.28;69.05;;;;;;;17.30;100.00;100571.69;5033372;28;20081;-77
2022/08/18 04:05:19;;;;;;;100.35;66.60;;;;;;;17.36;100.00;100580.66;5032753;28;20132;-76
2022/08/18 04:07:46;;;;;;;102.90;67.18;;;;;;;17.33;100.00;100581.84;5032838;28;20574;-77
2022/08/18 04:10:13;;;;;;;106.35;68.47;;;;;;;17.38;100.00;100583.91;5032806;28;20137;-76
2022/08/18 04:12:41;;;;;;;98.57;67.05;;;;;;;17.45;100.00;100577.59;5033371;28;20092;-77
2022/08/18 04:15:10;;;;;;;104.50;67.07;;;;;;;17.46;100.00;100576.59;5033555;28;20511;-77
2022/08/18 04:17:37;;;;;;;101.07;65.80;;;;;;;17.58;100.00;100579.44;5033306;28;20400;-79
2022/08/18 04:20:05;;;;;;;97.97;64.72;;;;;;;17.62;100.00;100582.47;5032822;28;20128;-77
2022/08/18 04:22:33;;;;;;;103.50;65.53;;;;;;;17.67;100.00;100574.78;5032972;28;20069;-75
2022/08/18 04:25:00;;;;;;;96.72;63.38;;;;;;;17.72;100.00;100569.69;5033462;28;20400;-77
2022/08/18 04:27:28;;;;;;;100.13;63.65;;;;;;;17.75;100.00;100574.59;5032937;28;20076;-74
2022/08/18 04:29:55;;;;;;;98.57;66.03;;;;;;;17.75;100.00;100577.22;5032511;28;20087;-76
2022/08/18 04:32:23;;;;;;;102.20;65.80;;;;;;;17.76;100.00;100586.81;5033008;28;20068;-76
2022/08/18 04:34:51;;;;;;;97.57;65.43;;;;;;;17.77;100.00;100583.13;5032738;28;20131;-77
2022/08/18 04:37:18;;;;;;;103.32;65.18;;;;;;;17.76;100.00;100592.09;5032811;28;20356;-76
2022/08/18 04:39:45;;;;;;;105.43;66.50;;;;;;;17.79;100.00;100596.97;5032286;28;20133;-76
2022/08/18 04:42:12;;;;;;;103.53;67.43;;;;;;;17.78;100.00;100605.94;5032927;28;20095;-76
2022/08/18 04:44:38;;;;;;;101.28;66.50;;;;;;;17.80;100.00;100599.44;5032678;28;20077;-76
2022/08/18 04:47:06;;;;;;;107.50;68.63;;;;;;;17.83;100.00;100598.22;5032403;28;20099;-76
2022/08/18 04:49:35;;;;;;;111.85;68.88;;;;;;;17.78;100.00;100590.88;5031837;28;20041;-77
2022/08/18 04:54:45;;;;;;;104.10;66.63;;;;;;;17.85;100.00;100601.47;5032499;28;20060;-78
2022/08/18 04:57:15;;;;;;;105.20;66.78;;;;;;;17.85;100.00;100598.81;5032826;28;20149;-78
2022/08/18 04:59:45;;;;;;;109.55;69.93;;;;;;;17.91;100.00;100590.06;5032187;28;20053;-77
2022/08/18 05:02:13;;;;;;;97.05;63.85;;;;;;;17.88;100.00;100590.47;5032459;28;20092;-79
2022/08/18 05:04:45;;;;;;;102.40;63.88;;;;;;;17.86;100.00;100600.44;5032590;28;20099;-77
2022/08/18 05:07:14;;;;;;;107.82;68.43;;;;;;;17.89;100.00;100614.09;5032593;28;20045;-78
2022/08/18 05:09:41;;;;;;;98.25;62.47;;;;;;;17.95;100.00;100609.81;5031970;28;20111;-78
2022/08/18 05:12:12;;;;;;;95.72;64.70;;;;;;;17.92;100.00;100612.88;5032326;28;20478;-77
2022/08/18 05:14:39;;;;;;;95.32;62.40;;;;;;;17.94;100.00;100617.97;5031572;28;20180;-76
2022/08/18 05:17:05;;;;;;;97.95;61.53;;;;;;;18.03;100.00;100622.00;5031979;28;20057;-76
2022/08/18 05:19:34;;;;;;;93.82;60.17;;;;;;;18.06;100.00;100621.59;5031935;28;20045;-75
2022/08/18 05:22:03;;;;;;;91.60;59.70;;;;;;;18.10;100.00;100625.47;5031744;28;20489;-76
2022/08/18 05:24:31;;;;;;;94.90;60.58;;;;;;;18.09;100.00;100618.53;5031888;28;20448;-76
2022/08/18 05:26:59;;;;;;;96.63;61.40;;;;;;;18.13;100.00;100628.50;5032816;28;20049;-76
2022/08/18 05:29:25;;;;;;;93.97;60.60;;;;;;;18.12;100.00;100628.72;5032595;28;20085;-77
2022/08/18 05:31:53;;;;;;;90.65;59.00;;;;;;;18.13;100.00;100620.56;5032125;28;20482;-76
2022/08/18 05:34:21;;;;;;;85.95;54.63;;;;;;;18.18;100.00;100623.41;5031994;28;20045;-77
2022/08/18 05:37:13;;;;;;;82.68;53.92;;;;;;;18.23;100.00;100620.97;5031864;28;20548;-77
2022/08/18 05:39:51;;;;;;;82.72;52.13;;;;;;;18.23;100.00;100620.97;5024124;28;20053;-76
2022/08/18 05:42:21;;;;;;;82.18;51.75;;;;;;;18.22;100.00;100627.28;5032247;28;20080;-76
2022/08/18 05:44:50;;;;;;;81.10;52.33;;;;;;;18.27;100.00;100625.84;5032626;28;20136;-77
2022/08/18 05:47:22;;;;;;;79.05;51.63;;;;;;;18.34;100.00;100626.66;5031545;28;20089;-76
2022/08/18 05:49:50;;;;;;;79.70;49.97;;;;;;;18.27;100.00;100610.78;5031839;28;20136;-76
2022/08/18 05:52:22;;;;;;;81.47;49.88;;;;;;;18.36;100.00;100627.28;5032380;28;20147;-76
2022/08/18 05:57:43;;;;;;;71.90;47.50;;;;;;;18.41;100.00;100627.47;5031709;28;20115;-76
2022/08/18 06:00:10;;;;;;;74.25;47.85;;;;;;;18.42;100.00;100627.25;5031021;28;20107;-75
2022/08/18 06:02:44;;;;;;;73.68;47.85;;;;;;;18.56;100.00;100625.38;5030913;28;20049;-74
2022/08/18 06:05:16;;;;;;;66.65;44.30;;;;;;;18.59;100.00;100632.91;5030566;28;20049;-74
2022/08/18 06:07:49;;;;;;;66.53;44.85;;;;;;;18.64;100.00;100633.13;5031986;28;20092;-75
2022/08/18 06:10:16;;;;;;;68.00;44.35;;;;;;;18.61;100.00;100638.84;5031139;28;20133;-76
2022/08/18 06:12:46;;;;;;;63.20;44.03;;;;;;;18.72;100.00;100642.69;5031334;28;20052;-76
2022/08/18 06:15:16;;;;;;;67.13;46.03;;;;;;;18.67;100.00;100643.31;5030653;28;20049;-75
2022/08/18 06:17:59;;;;;;;70.43;47.92;;;;;;;18.72;100.00;100640.88;5031037;28;20053;-75
2022/08/18 06:20:33;;;;;;;71.30;48.35;;;;;;;18.71;100.00;100638.41;5030869;28;20077;-76
2022/08/18 06:23:13;;;;;;;66.70;45.75;;;;;;;18.73;100.00;100654.94;5031793;28;20053;-78
2022/08/18 06:25:54;;;;;;;69.70;46.00;;;;;;;18.76;100.00;100657.97;5030886;28;20151;-76
2022/08/18 06:28:21;;;;;;;63.33;43.83;;;;;;;18.73;100.00;100662.88;5030662;28;20053;-75
2022/08/18 06:30:59;;;;;;;60.28;43.08;;;;;;;18.74;100.00;100670.63;5030764;28;20528;-73
2022/08/18 06:33:40;;;;;;;65.82;46.40;;;;;;;18.74;100.00;100670.63;5030817;28;20446;-75
2022/08/18 06:36:17;;;;;;;65.93;46.05;;;;;;;18.77;100.00;100664.91;5030690;28;20156;-75
2022/08/18 06:38:56;;;;;;;69.68;48.10;;;;;;;18.82;100.00;100677.53;5030870;28;20056;-75
2022/08/18 06:41:33;;;;;;;80.13;48.47;;;;;;;18.85;100.00;100669.16;5030554;28;20085;-76
2022/08/18 06:44:03;;;;;;;70.32;46.05;;;;;;;18.83;100.00;100658.78;5030605;28;20049;-74
2022/08/18 06:46:39;;;;;;;74.78;46.45;;;;;;;18.99;100.00;100675.22;5030287;28;20477;-75
2022/08/18 06:49:09;;;;;;;63.80;43.47;;;;;;;19.07;100.00;100675.00;5030212;28;20136;-76
2022/08/18 06:51:36;;;;;;;69.28;46.42;;;;;;;19.14;100.00;100683.72;5030511;28;20053;-74
2022/08/18 06:54:06;;;;;;;70.40;44.58;;;;;;;19.14;100.00;100675.78;5030526;28;20124;-73
2022/08/18 06:56:45;;;;;;;64.28;44.17;;;;;;;19.20;100.00;100674.94;5030332;28;20093;-74
2022/08/18 06:59:24;;;;;;;64.10;44.22;;;;;;;19.18;100.00;100677.78;5030502;28;20475;-73
2022/08/18 07:01:54;;;;;;;68.97;45.22;;;;;;;19.18;100.00;100682.28;5030502;28;20133;-75
2022/08/18 07:04:38;;;;;;;64.30;44.38;;;;;;;19.10;100.00;100675.38;5030328;28;20053;-76
2022/08/18 07:07:30;;;;;;;60.95;42.85;;;;;;;19.15;100.00;100682.72;5030105;28;20569;-76
2022/08/18 07:09:59;;;;;;;58.17;41.72;;;;;;;19.04;100.00;100672.75;5030002;28;20215;-75
2022/08/18 07:12:28;;;;;;;60.67;41.97;;;;;;;19.09;100.00;100673.75;5030055;28;20059;-75
2022/08/18 07:14:58;;;;;;;59.38;41.78;;;;;;;19.07;100.00;100680.28;5030376;28;20187;-76
2022/08/18 07:17:28;;;;;;;59.72;41.78;;;;;;;19.19;100.00;100674.13;5033522;28;20045;-73
2022/08/18 07:20:07;;;;;;;59.22;40.80;;;;;;;19.17;100.00;100667.41;5033861;28;20080;-75
2022/08/18 07:22:52;;;;;;;56.70;40.00;;;;;;;19.13;100.00;100663.53;5033733;28;20045;-75
2022/08/18 07:25:25;;;;;;;56.92;38.67;;;;;;;19.26;100.00;100660.00;5034273;28;20463;-75
2022/08/18 07:27:55;;;;;;;55.25;39.40;;;;;;;19.22;100.00;100651.66;5033934;28;20132;-75
2022/08/18 07:30:34;;;;;;;56.63;39.72;;;;;;;19.42;100.00;100648.88;5033532;28;20059;-73
2022/08/18 07:33:11;;;;;;;56.03;41.08;;;;;;;19.42;99.54;100649.69;5033866;28;20057;-75
2022/08/18 07:35:42;;;;;;;57.97;40.22;;;;;;;19.46;99.16;100648.25;5033535;28;20054;-73
2022/08/18 07:38:16;;;;;;;56.75;40.72;;;;;;;19.45;99.15;100657.22;5033307;28;20049;-74
2022/08/18 07:40:51;;;;;;;63.47;44.20;;;;;;;19.35;99.32;100653.44;5033951;28;20128;-75
2022/08/18 07:43:26;;;;;;;67.25;44.45;;;;;;;19.17;100.00;100654.13;5033592;28;20107;-75
2022/08/18 07:45:57;;;;;;;63.38;43.92;;;;;;;19.27;100.00;100651.84;5033777;28;20474;-75
2022/08/18 07:48:29;;;;;;;58.03;42.17;;;;;;;19.33;99.88;100658.97;5032947;28;20538;-75
2022/08/18 07:51:07;;;;;;;64.40;43.08;;;;;;;19.35;99.74;100662.22;5033194;28;20128;-76
2022/08/18 07:53:46;;;;;;;56.17;41.72;;;;;;;19.41;99.81;100660.53;5045436;28;20123;-75
2022/08/18 07:56:20;;;;;;;59.50;42.17;;;;;;;19.46;99.20;100664.16;5053032;28;20087;-75
2022/08/18 07:58:53;;;;;;;57.80;41.00;;;;;;;19.52;98.98;100673.16;5053063;28;20080;-76
2022/08/18 08:01:28;;;;;;;59.40;40.58;;;;;;;19.69;98.46;100684.09;5052822;28;20053;-76
2022/08/18 08:04:03;;;;;;;59.38;41.45;;;;;;;19.58;98.05;100687.41;5053254;28;20053;-75
2022/08/18 08:06:33;;;;;;;58.58;40.65;;;;;;;19.58;98.46;100692.72;5053157;28;20080;-76
2022/08/18 08:09:10;;;;;;;55.65;39.60;;;;;;;19.73;97.47;100685.28;5053091;28;20049;-76
2022/08/18 08:11:47;;;;;;;59.67;40.80;;;;;;;19.87;97.04;100684.13;5053416;28;20139;-75
2022/08/18 08:14:30;;;;;;;51.05;38.03;;;;;;;19.97;96.50;100683.66;5053378;28;20136;-76
2022/08/18 08:17:04;;;;;;;51.83;38.25;;;;;;;19.83;96.86;100696.25;5052945;28;20127;-76
2022/08/18 08:19:46;;;;;;;53.30;37.20;;;;;;;19.82;96.80;100695.44;5052709;28;20131;-77
2022/08/18 08:22:20;;;;;;;50.95;36.83;;;;;;;19.83;96.78;100691.75;5052859;28;20087;-77
2022/08/18 08:24:57;;;;;;;56.75;40.10;;;;;;;19.81;96.81;100693.00;5053146;28;20690;-74
2022/08/18 08:27:33;;;;;;;52.67;39.55;;;;;;;19.78;96.69;100682.81;5051412;28;20140;-76
2022/08/18 08:30:05;;;;;;;52.92;38.47;;;;;;;19.74;97.00;100686.91;5052262;28;20136;-76
2022/08/18 08:32:34;;;;;;;53.80;38.67;;;;;;;19.63;97.05;100695.56;5052541;28;20083;-76
2022/08/18 08:35:08;;;;;;;47.30;37.55;;;;;;;19.55;97.55;100710.69;5053045;28;20336;-75
2022/08/18 08:37:41;;;;;;;52.33;38.45;;;;;;;19.70;97.30;100706.94;5052272;28;20059;-74
2022/08/18 08:40:14;;;;;;;45.97;35.83;;;;;;;19.76;96.87;100695.47;5052286;28;20499;-76
2022/08/18 08:42:47;;;;;;;47.28;35.88;;;;;;;19.75;96.79;100702.63;5052271;28;20049;-76
2022/08/18 08:45:20;;;;;;;52.75;38.55;;;;;;;19.64;97.61;100698.00;5052414;28;20083;-76
2022/08/18 08:47:51;;;;;;;;;;;;;;;19.82;97.17;100697.28;5052533;28;20053;-75
2022/08/18 08:50:22;;;;;;;52.92;37.80;;;;;;;19.92;96.87;100705.56;5052014;28;19928;-74
2022/08/18 08:52:55;;;;;;;49.78;37.22;;;;;;;19.99;96.51;100716.13;5052144;28;20095;-74
2022/08/18 08:55:25;;;;;;;53.45;36.88;;;;;;;20.02;96.09;100713.06;5051640;28;20110;-76
2022/08/18 08:58:12;;;;;;;54.08;39.60;;;;;;;20.00;95.66;100715.91;5051399;28;20041;-75
2022/08/18 09:00:40;;;;;;;53.63;39.22;;;;;;;19.88;96.38;100713.13;5051412;28;20041;-77
2022/08/18 09:03:26;;;;;;;50.90;38.65;;;;;;;19.95;96.42;100714.94;5051981;28;20486;-76
2022/08/18 09:06:01;;;;;;;56.30;40.63;;;;;;;19.97;95.83;100712.88;5050363;28;20091;-76
2022/08/18 09:08:42;;;;;;;55.67;40.58;;;;;;;20.02;95.51;100711.22;5051693;28;20067;-75
2022/08/18 09:11:48;;;;;;;53.22;38.25;;;;;;;20.11;95.11;100712.56;5051382;28;20081;-73
2022/08/18 09:14:40;;;;;;;53.00;38.63;;;;;;;20.04;95.01;100700.38;5050709;28;20427;-76
2022/08/18 09:17:26;;;;;;;55.88;39.95;;;;;;;20.14;94.88;100698.03;5094669;22;20100;-82
2022/08/18 09:20:11;;;;;;;54.88;38.55;;;;;;;20.30;94.33;100694.03;5108221;28;20060;-81
2022/08/18 09:22:47;;;;;;;51.60;37.90;;;;;;;20.44;93.18;100707.00;5088269;28;20041;-83
2022/08/18 09:25:32;;;;;;;51.10;37.25;;;;;;;20.62;92.78;100700.09;5089185;28;20048;-82
2022/08/18 09:28:11;;;;;;;51.33;36.83;;;;;;;20.74;91.35;100703.66;5105098;28;20078;-83
2022/08/18 09:30:45;;;;;;;54.50;37.55;;;;;;;20.88;90.89;100699.78;5107560;28;20052;-81
2022/08/18 09:33:23;;;;;;;49.95;37.97;;;;;;;21.08;89.96;100699.56;5107973;28;20075;-83
2022/08/18 09:36:16;;;;;;;44.30;36.50;;;;;;;21.36;88.50;100693.72;5107653;28;20476;-82
2022/08/18 09:41:46;;;;;;;50.78;34.88;;;;;;;22.26;84.81;100702.41;5108451;28;20086;-83
2022/08/18 09:44:34;;;;;;;45.05;33.88;;;;;;;22.42;84.09;100700.91;5106190;28;20097;-82
2022/08/18 09:47:02;;;;;;;44.33;35.00;;;;;;;22.86;82.19;100696.00;5106677;28;20052;-80
2022/08/18 09:49:48;;;;;;;38.95;31.38;;;;;;;23.11;80.67;100696.53;5105932;28;20058;-84
2022/08/18 09:52:47;;;;;;;43.45;33.30;;;;;;;23.05;80.96;100702.81;5103983;28;20048;-80
2022/08/18 09:55:47;;;;;;;40.70;31.20;;;;;;;23.21;80.31;100701.25;5103631;28;20048;-81
2022/08/18 09:58:18;;;;;;;39.17;32.35;;;;;;;23.73;78.33;100710.00;5103755;28;20102;-82
2022/08/18 10:00:45;;;;;;;39.58;31.92;;;;;;;23.86;77.64;100706.22;5107135;28;20048;-81
2022/08/18 10:03:25;;;;;;;43.05;33.13;;;;;;;23.68;77.51;100721.41;5107084;28;20052;-81
2022/08/18 10:06:07;;;;;;;34.38;28.77;;;;;;;23.91;77.44;100725.81;5107013;28;20060;-79
2022/08/18 10:08:51;;;;;;;37.80;31.25;;;;;;;23.88;76.57;100734.31;5106100;28;20107;-80
2022/08/18 10:11:41;;;;;;;36.85;31.10;;;;;;;23.77;76.32;100724.50;5106712;28;20139;-80
2022/08/18 10:14:32;;;;;;;34.83;29.30;;;;;;;24.00;76.64;100729.72;5106883;28;20047;-81
2022/08/18 10:17:20;;;;;;;36.22;30.58;;;;;;;23.82;75.84;100720.06;5106969;28;20079;-79
2022/08/18 10:19:56;;;;;;;35.50;30.63;;;;;;;23.56;76.87;100717.19;5106739;28;20044;-80
2022/08/18 10:22:42;;;;;;;46.80;31.30;;;;;;;23.49;77.24;100709.28;5107565;28;20106;-83
2022/08/18 10:25:13;;;;;;;38.88;32.70;;;;;;;23.29;76.85;100701.69;5105941;28;20165;-82
2022/08/18 10:27:53;;;;;;;42.88;30.90;;;;;;;23.36;77.34;100707.69;5107283;28;20367;-82
2022/08/18 10:30:59;;;;;;;38.50;31.38;;;;;;;23.42;76.75;100704.06;5093038;28;20041;-80
2022/08/18 10:33:56;;;;;;;43.47;31.58;;;;;;;23.78;75.79;100702.06;5088281;28;20048;-82
2022/08/18 10:36:45;;;;;;;35.95;30.52;;;;;;;23.89;75.91;100703.06;5088761;28;20079;-82
2022/08/18 10:39:15;;;;;;;38.25;32.03;;;;;;;23.92;74.42;100678.53;5088954;28;20116;-81
2022/08/18 10:41:50;;;;;;;38.53;31.42;;;;;;;;;;5095236;28;20048;-82
2022/08/18 10:44:22;;;;;;;38.38;33.13;;;;;;;24.01;74.48;100664.50;5092313;28;20044;-80
2022/08/18 10:46:50;;;;;;;40.15;32.72;;;;;;;23.95;74.08;100653.97;5091867;28;20656;-82
2022/08/18 10:49:24;;;;;;;47.53;32.85;;;;;;;23.65;75.71;100675.66;5089219;28;20076;-82
2022/08/18 10:52:21;;;;;;;35.00;31.30;;;;;;;23.63;75.01;100659.88;5094416;28;20048;-81
2022/08/18 10:55:28;;;;;;;38.45;31.15;;;;;;;24.32;72.86;100659.63;5085335;28;20060;-80
2022/08/18 10:58:25;;;;;;;35.15;28.85;;;;;;;24.92;71.65;100653.47;5038467;28;20152;-81
2022/08/18 11:01:08;;;;;;;33.95;29.58;;;;;;;25.04;70.55;100643.47;5089312;28;20056;-82
2022/08/18 11:04:01;;;;;;;32.38;28.88;;;;;;;24.96;69.78;100647.41;5094119;28;20048;-79
2022/08/18 11:06:52;;;;;;;31.90;28.58;;;;;;;24.71;70.48;100634.47;5095178;28;20048;-81
2022/08/18 11:09:26;;;;;;;26.92;24.23;;;;;;;24.56;69.60;100644.19;5089175;28;20052;-81
2022/08/18 11:12:03;;;;;;;27.63;24.80;;;;;;;24.44;69.96;100645.13;5088911;28;20068;-81
2022/08/18 11:14:53;;;;;;;28.50;25.65;;;;;;;24.22;69.83;100638.06;5103283;28;20056;-81
2022/08/18 11:17:33;;;;;;;24.60;22.10;;;;;;;24.43;70.20;100634.66;5100249;28;20101;-80
2022/08/18 11:20:02;;;;;;;26.15;23.45;;;;;;;24.69;69.87;100649.97;5089767;28;20071;-82
2022/08/18 11:25:22;;;;;;;24.27;21.63;;;;;;;24.78;68.95;100631.63;5088960;28;20080;-81
2022/08/18 11:27:49;;;;;;;25.77;21.20;;;;;;;24.61;68.94;100637.03;5089490;28;20052;-79
2022/08/18 11:30:28;;;;;;;22.08;19.85;;;;;;;24.74;68.72;100623.28;5088932;28;20055;-80
2022/08/18 11:32:55;;;;;;;22.33;20.05;;;;;;;24.65;68.71;100622.09;5089405;28;20107;-80
2022/08/18 11:35:29;;;;;;;23.45;21.08;;;;;;;24.78;68.41;100620.91;5089629;28;20049;-77
2022/08/18 11:37:59;;;;;;;25.80;22.35;;;;;;;24.77;68.33;100612.06;5088731;28;20044;-80
2022/08/18 11:40:35;;;;;;;25.33;22.63;;;;;;;24.96;67.46;100603.75;5089893;28;20072;-81
2022/08/18 11:43:11;;;;;;;24.35;21.75;;;;;;;24.82;68.18;100611.31;5098103;28;20540;-82
2022/08/18 11:45:51;;;;;;;29.52;24.38;;;;;;;25.14;68.14;100614.91;5098949;28;20044;-81
2022/08/18 11:48:37;;;;;;;25.15;22.55;;;;;;;25.38;67.12;100618.09;5111899;28;20418;-84
2022/08/18 11:51:19;;;;;;;23.67;21.38;;;;;;;25.30;67.82;100615.06;5093454;28;20495;-80